sensor_id;sensor_type;location;lat;lon;timestamp;pressure;altitude;pressure_sealevel;temperature;humidity
50430;BME280;36359;41.556;-8.418;2022-07-06T00:01:35;100359.91;;;23.63;63.88
50430;BME280;36359;41.556;-8.418;2022-07-06T00:06:30;100375.97;;;23.43;59.46
50430;BME280;36359;41.556;-8.418;2022-07-06T00:08:56;100370.88;;;23.40;63.42
50430;BME280;36359;41.556;-8.418;2022-07-06T00:11:22;100376.81;;;23.43;63.82
50430;BME280;36359;41.556;-8.418;2022-07-06T00:13:48;100374.41;;;23.47;59.62
50430;BME280;36359;41.556;-8.418;2022-07-06T00:16:14;100378.75;;;23.06;60.48
50430;BME280;36359;41.556;-8.418;2022-07-06T00:18:40;100378.00;;;22.99;61.16
50430;BME280;36359;41.556;-8.418;2022-07-06T00:21:06;100378.84;;;22.99;60.19
50430;BME280;36359;41.556;-8.418;2022-07-06T00:23:31;100378.00;;;22.99;60.31
50430;BME280;36359;41.556;-8.418;2022-07-06T00:25:57;100379.47;;;23.01;61.13
50430;BME280;36359;41.556;-8.418;2022-07-06T00:28:23;100380.03;;;23.40;66.15
50430;BME280;36359;41.556;-8.418;2022-07-06T00:30:49;100376.69;;;23.68;65.59
50430;BME280;36359;41.556;-8.418;2022-07-06T00:33:15;100374.34;;;23.84;64.78
50430;BME280;36359;41.556;-8.418;2022-07-06T00:35:41;100366.44;;;23.99;64.65
50430;BME280;36359;41.556;-8.418;2022-07-06T00:38:07;100366.72;;;24.09;64.47
50430;BME280;36359;41.556;-8.418;2022-07-06T00:40:33;100354.34;;;23.82;59.98
50430;BME280;36359;41.556;-8.418;2022-07-06T00:42:59;100365.16;;;23.71;62.80
50430;BME280;36359;41.556;-8.418;2022-07-06T00:45:24;100357.63;;;23.90;64.13
50430;BME280;36359;41.556;-8.418;2022-07-06T00:47:50;100367.13;;;23.64;63.78
50430;BME280;36359;41.556;-8.418;2022-07-06T00:50:17;100366.84;;;23.72;60.29
50430;BME280;36359;41.556;-8.418;2022-07-06T00:52:54;100374.59;;;23.33;60.30
50430;BME280;36359;41.556;-8.418;2022-07-06T00:55:23;100367.81;;;23.29;63.81
50430;BME280;36359;41.556;-8.418;2022-07-06T00:57:49;100371.97;;;23.20;62.32
50430;BME280;36359;41.556;-8.418;2022-07-06T01:00:16;100366.44;;;22.83;63.18
50430;BME280;36359;41.556;-8.418;2022-07-06T01:02:44;100377.41;;;22.90;67.10
50430;BME280;36359;41.556;-8.418;2022-07-06T01:05:11;100388.75;;;23.25;64.82
50430;BME280;36359;41.556;-8.418;2022-07-06T01:07:39;100386.34;;;23.29;66.45
50430;BME280;36359;41.556;-8.418;2022-07-06T01:10:07;100391.44;;;22.95;62.22
50430;BME280;36359;41.556;-8.418;2022-07-06T01:12:37;100392.47;;;22.94;66.21
50430;BME280;36359;41.556;-8.418;2022-07-06T01:15:06;100392.53;;;22.69;62.67
50430;BME280;36359;41.556;-8.418;2022-07-06T01:17:33;100392.16;;;22.09;64.54
50430;BME280;36359;41.556;-8.418;2022-07-06T01:20:10;100394.09;;;22.08;64.42
50430;BME280;36359;41.556;-8.418;2022-07-06T01:22:36;100389.31;;;21.90;64.54
50430;BME280;36359;41.556;-8.418;2022-07-06T01:25:03;100397.88;;;21.82;63.84
50430;BME280;36359;41.556;-8.418;2022-07-06T01:27:30;100391.25;;;21.90;64.11
50430;BME280;36359;41.556;-8.418;2022-07-06T01:29:55;100389.25;;;21.72;64.77
50430;BME280;36359;41.556;-8.418;2022-07-06T01:32:21;100390.63;;;22.19;69.35
50430;BME280;36359;41.556;-8.418;2022-07-06T01:34:47;100398.94;;;21.81;64.82
50430;BME280;36359;41.556;-8.418;2022-07-06T01:37:13;100405.84;;;21.65;65.84
50430;BME280;36359;41.556;-8.418;2022-07-06T01:39:39;100402.88;;;21.98;70.13
50430;BME280;36359;41.556;-8.418;2022-07-06T01:42:05;100400.38;;;22.47;69.17
50430;BME280;36359;41.556;-8.418;2022-07-06T01:44:31;100400.38;;;22.72;65.02
50430;BME280;36359;41.556;-8.418;2022-07-06T01:46:58;100393.91;;;22.35;63.62
50430;BME280;36359;41.556;-8.418;2022-07-06T01:49:24;100383.00;;;22.15;67.55
50430;BME280;36359;41.556;-8.418;2022-07-06T01:51:50;100370.53;;;22.56;69.42
50430;BME280;36359;41.556;-8.418;2022-07-06T01:54:16;100379.59;;;22.13;63.69
50430;BME280;36359;41.556;-8.418;2022-07-06T01:56:42;100394.03;;;22.21;68.97
50430;BME280;36359;41.556;-8.418;2022-07-06T01:59:08;100402.72;;;22.50;67.88
50430;BME280;36359;41.556;-8.418;2022-07-06T02:01:36;100407.69;;;22.41;64.20
50430;BME280;36359;41.556;-8.418;2022-07-06T02:04:02;100405.81;;;22.35;65.41
50430;BME280;36359;41.556;-8.418;2022-07-06T02:06:27;100393.56;;;22.25;65.64
50430;BME280;36359;41.556;-8.418;2022-07-06T02:08:53;100385.41;;;22.05;64.45
50430;BME280;36359;41.556;-8.418;2022-07-06T02:11:19;100374.34;;;22.36;67.42
50430;BME280;36359;41.556;-8.418;2022-07-06T02:13:45;100382.25;;;22.76;69.03
50430;BME280;36359;41.556;-8.418;2022-07-06T02:16:11;100383.31;;;22.75;65.78
50430;BME280;36359;41.556;-8.418;2022-07-06T02:18:37;100386.44;;;22.60;67.63
50430;BME280;36359;41.556;-8.418;2022-07-06T02:21:06;100376.56;;;22.89;66.89
50430;BME280;36359;41.556;-8.418;2022-07-06T02:23:31;100387.91;;;22.38;64.28
50430;BME280;36359;41.556;-8.418;2022-07-06T02:25:58;100385.22;;;22.31;64.72
50430;BME280;36359;41.556;-8.418;2022-07-06T02:28:24;100387.53;;;22.34;67.63
50430;BME280;36359;41.556;-8.418;2022-07-06T02:30:50;100391.91;;;22.67;68.14
50430;BME280;36359;41.556;-8.418;2022-07-06T02:33:16;100401.59;;;22.76;65.92
50430;BME280;36359;41.556;-8.418;2022-07-06T02:35:42;100410.09;;;23.00;66.07
50430;BME280;36359;41.556;-8.418;2022-07-06T02:38:10;100402.31;;;22.47;63.68
50430;BME280;36359;41.556;-8.418;2022-07-06T02:40:36;100397.38;;;21.60;67.51
50430;BME280;36359;41.556;-8.418;2022-07-06T02:43:02;100400.13;;;21.98;67.02
50430;BME280;36359;41.556;-8.418;2022-07-06T02:45:28;100407.38;;;22.50;69.29
50430;BME280;36359;41.556;-8.418;2022-07-06T02:47:54;100397.75;;;22.34;65.01
50430;BME280;36359;41.556;-8.418;2022-07-06T02:50:23;100402.53;;;22.20;64.67
50430;BME280;36359;41.556;-8.418;2022-07-06T02:52:49;100403.59;;;22.44;66.88
50430;BME280;36359;41.556;-8.418;2022-07-06T02:55:16;100398.53;;;22.84;68.23
50430;BME280;36359;41.556;-8.418;2022-07-06T02:57:43;100410.34;;;22.98;66.65
50430;BME280;36359;41.556;-8.418;2022-07-06T03:00:11;100411.53;;;23.09;66.70
50430;BME280;36359;41.556;-8.418;2022-07-06T03:02:38;100402.59;;;23.25;65.89
50430;BME280;36359;41.556;-8.418;2022-07-06T03:07:36;100392.28;;;22.96;63.01
50430;BME280;36359;41.556;-8.418;2022-07-06T03:10:02;100391.69;;;22.43;62.50
50430;BME280;36359;41.556;-8.418;2022-07-06T03:12:28;100396.16;;;22.19;65.97
50430;BME280;36359;41.556;-8.418;2022-07-06T03:14:54;100389.44;;;22.59;67.75
50430;BME280;36359;41.556;-8.418;2022-07-06T03:17:20;100389.00;;;22.62;63.39
50430;BME280;36359;41.556;-8.418;2022-07-06T03:19:47;100394.34;;;22.32;63.04
50430;BME280;36359;41.556;-8.418;2022-07-06T03:22:13;100389.84;;;22.06;62.19
50430;BME280;36359;41.556;-8.418;2022-07-06T03:24:40;100397.84;;;22.45;68.58
50430;BME280;36359;41.556;-8.418;2022-07-06T03:27:07;100398.03;;;22.51;64.59
50430;BME280;36359;41.556;-8.418;2022-07-06T03:29:33;100407.28;;;22.81;67.50
50430;BME280;36359;41.556;-8.418;2022-07-06T03:31:59;100410.47;;;22.41;61.32
50430;BME280;36359;41.556;-8.418;2022-07-06T03:34:25;100409.66;;;21.64;63.45
50430;BME280;36359;41.556;-8.418;2022-07-06T03:36:52;100404.13;;;21.06;69.39
50430;BME280;36359;41.556;-8.418;2022-07-06T03:39:18;100405.72;;;20.75;72.11
50430;BME280;36359;41.556;-8.418;2022-07-06T03:41:43;100408.81;;;21.12;68.91
50430;BME280;36359;41.556;-8.418;2022-07-06T03:44:09;100410.38;;;21.46;69.86
50430;BME280;36359;41.556;-8.418;2022-07-06T03:46:36;100412.81;;;21.74;68.63
50430;BME280;36359;41.556;-8.418;2022-07-06T03:49:02;100407.78;;;22.28;70.93
50430;BME280;36359;41.556;-8.418;2022-07-06T03:51:28;100407.38;;;22.50;65.59
50430;BME280;36359;41.556;-8.418;2022-07-06T03:53:54;100406.66;;;22.61;66.25
50430;BME280;36359;41.556;-8.418;2022-07-06T03:56:20;100410.41;;;22.92;67.34
50430;BME280;36359;41.556;-8.418;2022-07-06T03:59:02;100407.22;;;23.13;66.40
50430;BME280;36359;41.556;-8.418;2022-07-06T04:01:31;100407.16;;;22.26;63.26
50430;BME280;36359;41.556;-8.418;2022-07-06T04:03:58;100410.38;;;21.91;65.82
50430;BME280;36359;41.556;-8.418;2022-07-06T04:06:24;100413.91;;;21.67;64.71
50430;BME280;36359;41.556;-8.418;2022-07-06T04:08:51;100404.19;;;21.58;70.06
50430;BME280;36359;41.556;-8.418;2022-07-06T04:11:18;100407.22;;;22.19;69.42
50430;BME280;36359;41.556;-8.418;2022-07-06T04:13:44;100416.25;;;22.33;66.74
50430;BME280;36359;41.556;-8.418;2022-07-06T04:16:09;100408.13;;;22.63;65.36
50430;BME280;36359;41.556;-8.418;2022-07-06T04:18:35;100415.03;;;21.52;63.14
50430;BME280;36359;41.556;-8.418;2022-07-06T04:21:03;100409.13;;;22.19;68.90
50430;BME280;36359;41.556;-8.418;2022-07-06T04:23:31;100408.91;;;22.45;63.71
50430;BME280;36359;41.556;-8.418;2022-07-06T04:25:57;100407.91;;;22.40;67.41
50430;BME280;36359;41.556;-8.418;2022-07-06T04:28:25;100415.75;;;22.68;66.70
50430;BME280;36359;41.556;-8.418;2022-07-06T04:30:50;100409.56;;;22.48;64.70
50430;BME280;36359;41.556;-8.418;2022-07-06T04:33:20;100413.66;;;22.07;60.92
50430;BME280;36359;41.556;-8.418;2022-07-06T04:35:48;100409.06;;;22.26;61.37
50430;BME280;36359;41.556;-8.418;2022-07-06T04:38:14;100412.38;;;21.19;69.82
50430;BME280;36359;41.556;-8.418;2022-07-06T04:40:41;100413.34;;;20.27;70.46
50430;BME280;36359;41.556;-8.418;2022-07-06T04:43:10;100409.94;;;20.38;72.31
50430;BME280;36359;41.556;-8.418;2022-07-06T04:45:36;100418.81;;;20.93;73.20
50430;BME280;36359;41.556;-8.418;2022-07-06T04:48:04;100416.59;;;21.28;71.91
50430;BME280;36359;41.556;-8.418;2022-07-06T04:50:30;100414.50;;;21.24;68.58
50430;BME280;36359;41.556;-8.418;2022-07-06T04:53:00;100415.59;;;21.09;68.26
50430;BME280;36359;41.556;-8.418;2022-07-06T04:55:27;100413.34;;;20.80;66.22
50430;BME280;36359;41.556;-8.418;2022-07-06T04:57:54;100409.53;;;20.68;66.29
50430;BME280;36359;41.556;-8.418;2022-07-06T05:00:21;100403.56;;;20.44;66.29
50430;BME280;36359;41.556;-8.418;2022-07-06T05:02:48;100404.00;;;20.41;65.78
50430;BME280;36359;41.556;-8.418;2022-07-06T05:05:15;100410.81;;;20.38;66.00
50430;BME280;36359;41.556;-8.418;2022-07-06T05:07:41;100411.63;;;20.32;65.39
50430;BME280;36359;41.556;-8.418;2022-07-06T05:10:09;100406.56;;;20.36;65.18
50430;BME280;36359;41.556;-8.418;2022-07-06T05:12:37;100411.66;;;20.52;64.12
50430;BME280;36359;41.556;-8.418;2022-07-06T05:15:04;100408.47;;;20.55;63.89
50430;BME280;36359;41.556;-8.418;2022-07-06T05:17:30;100403.59;;;20.51;64.03
50430;BME280;36359;41.556;-8.418;2022-07-06T05:19:58;100411.63;;;20.79;65.75
50430;BME280;36359;41.556;-8.418;2022-07-06T05:22:25;100418.63;;;20.95;66.03
50430;BME280;36359;41.556;-8.418;2022-07-06T05:24:51;100415.03;;;20.94;63.74
50430;BME280;36359;41.556;-8.418;2022-07-06T05:27:17;100411.66;;;20.12;69.55
50430;BME280;36359;41.556;-8.418;2022-07-06T05:29:45;100404.00;;;20.34;70.81
50430;BME280;36359;41.556;-8.418;2022-07-06T05:32:11;100419.41;;;21.08;71.40
50430;BME280;36359;41.556;-8.418;2022-07-06T05:34:37;100417.53;;;20.96;68.25
50430;BME280;36359;41.556;-8.418;2022-07-06T05:37:04;100416.09;;;20.00;72.36
50430;BME280;36359;41.556;-8.418;2022-07-06T05:39:30;100425.19;;;20.14;72.71
50430;BME280;36359;41.556;-8.418;2022-07-06T05:41:56;100419.69;;;20.40;74.33
50430;BME280;36359;41.556;-8.418;2022-07-06T05:44:22;100431.19;;;20.71;71.77
50430;BME280;36359;41.556;-8.418;2022-07-06T05:46:48;100427.53;;;20.43;71.37
50430;BME280;36359;41.556;-8.418;2022-07-06T05:49:14;100436.66;;;20.31;71.60
50430;BME280;36359;41.556;-8.418;2022-07-06T05:51:58;100430.28;;;20.43;71.15
50430;BME280;36359;41.556;-8.418;2022-07-06T05:54:24;100443.22;;;20.76;70.73
50430;BME280;36359;41.556;-8.418;2022-07-06T05:56:50;100440.78;;;21.26;71.75
50430;BME280;36359;41.556;-8.418;2022-07-06T05:59:16;100441.72;;;21.00;67.54
50430;BME280;36359;41.556;-8.418;2022-07-06T06:01:43;100437.78;;;21.35;70.98
50430;BME280;36359;41.556;-8.418;2022-07-06T06:04:12;100443.72;;;21.51;65.83
50430;BME280;36359;41.556;-8.418;2022-07-06T06:06:38;100448.06;;;21.07;65.83
50430;BME280;36359;41.556;-8.418;2022-07-06T06:09:04;100449.84;;;20.69;66.66
50430;BME280;36359;41.556;-8.418;2022-07-06T06:11:30;100447.50;;;20.52;67.07
50430;BME280;36359;41.556;-8.418;2022-07-06T06:13:56;100454.28;;;20.83;70.14
50430;BME280;36359;41.556;-8.418;2022-07-06T06:16:59;100453.81;;;20.99;66.03
50430;BME280;36359;41.556;-8.418;2022-07-06T06:19:58;100454.88;;;20.98;65.01
50430;BME280;36359;41.556;-8.418;2022-07-06T06:22:24;100452.75;;;21.00;64.32
50430;BME280;36359;41.556;-8.418;2022-07-06T06:24:50;100453.19;;;21.04;64.26
50430;BME280;36359;41.556;-8.418;2022-07-06T06:27:16;100458.72;;;20.97;64.10
50430;BME280;36359;41.556;-8.418;2022-07-06T06:41:52;100477.94;;;21.37;63.89
50430;BME280;36359;41.556;-8.418;2022-07-06T06:44:18;100480.03;;;21.35;64.02
50430;BME280;36359;41.556;-8.418;2022-07-06T06:46:44;100480.91;;;21.42;63.65
50430;BME280;36359;41.556;-8.418;2022-07-06T06:49:10;100480.69;;;21.37;63.83
50430;BME280;36359;41.556;-8.418;2022-07-06T06:51:36;100483.47;;;21.37;64.19
50430;BME280;36359;41.556;-8.418;2022-07-06T06:54:04;100485.78;;;21.40;64.74
50430;BME280;36359;41.556;-8.418;2022-07-06T06:56:29;100485.38;;;21.37;64.63
50430;BME280;36359;41.556;-8.418;2022-07-06T06:58:55;100487.47;;;21.41;64.87
50430;BME280;36359;41.556;-8.418;2022-07-06T07:01:21;100485.53;;;21.55;64.60
50430;BME280;36359;41.556;-8.418;2022-07-06T07:03:47;100482.56;;;21.57;64.75
50430;BME280;36359;41.556;-8.418;2022-07-06T07:06:13;100486.19;;;21.50;64.18
50430;BME280;36359;41.556;-8.418;2022-07-06T07:08:38;100491.44;;;21.59;63.99
50430;BME280;36359;41.556;-8.418;2022-07-06T07:11:04;100493.09;;;21.73;64.11
50430;BME280;36359;41.556;-8.418;2022-07-06T07:13:30;100489.72;;;21.71;63.50
50430;BME280;36359;41.556;-8.418;2022-07-06T07:15:56;100489.22;;;21.87;63.17
50430;BME280;36359;41.556;-8.418;2022-07-06T07:18:21;100498.69;;;22.05;62.97
50430;BME280;36359;41.556;-8.418;2022-07-06T07:20:47;100494.31;;;22.29;62.99
50430;BME280;36359;41.556;-8.418;2022-07-06T07:23:14;100498.50;;;22.38;62.32
50430;BME280;36359;41.556;-8.418;2022-07-06T07:25:40;100499.53;;;22.43;63.81
50430;BME280;36359;41.556;-8.418;2022-07-06T07:28:06;100498.88;;;22.48;62.45
50430;BME280;36359;41.556;-8.418;2022-07-06T07:30:32;100494.22;;;22.42;62.73
50430;BME280;36359;41.556;-8.418;2022-07-06T07:32:58;100498.47;;;22.44;63.00
50430;BME280;36359;41.556;-8.418;2022-07-06T07:35:26;100495.19;;;22.54;63.41
50430;BME280;36359;41.556;-8.418;2022-07-06T07:37:51;100496.84;;;22.62;62.34
50430;BME280;36359;41.556;-8.418;2022-07-06T07:40:17;100496.88;;;22.55;62.84
50430;BME280;36359;41.556;-8.418;2022-07-06T07:42:43;100492.94;;;22.44;63.17
50430;BME280;36359;41.556;-8.418;2022-07-06T07:45:11;100502.72;;;22.40;63.84
50430;BME280;36359;41.556;-8.418;2022-07-06T07:47:38;100502.69;;;22.47;64.10
50430;BME280;36359;41.556;-8.418;2022-07-06T07:50:05;100498.34;;;22.58;63.80
50430;BME280;36359;41.556;-8.418;2022-07-06T07:52:31;100494.63;;;22.71;63.48
50430;BME280;36359;41.556;-8.418;2022-07-06T07:54:57;100497.66;;;22.87;63.15
50430;BME280;36359;41.556;-8.418;2022-07-06T07:57:23;100504.16;;;23.06;62.13
50430;BME280;36359;41.556;-8.418;2022-07-06T07:59:49;100495.38;;;23.09;62.00
50430;BME280;36359;41.556;-8.418;2022-07-06T08:02:14;100502.16;;;23.32;61.94
50430;BME280;36359;41.556;-8.418;2022-07-06T08:04:45;100499.38;;;23.32;61.24
50430;BME280;36359;41.556;-8.418;2022-07-06T08:07:11;100505.47;;;23.22;61.20
50430;BME280;36359;41.556;-8.418;2022-07-06T08:09:37;100498.63;;;23.43;60.92
50430;BME280;36359;41.556;-8.418;2022-07-06T08:12:03;100506.78;;;23.56;60.75
50430;BME280;36359;41.556;-8.418;2022-07-06T08:14:29;100511.16;;;23.64;59.63
50430;BME280;36359;41.556;-8.418;2022-07-06T08:16:55;100503.09;;;23.81;59.38
50430;BME280;36359;41.556;-8.418;2022-07-06T08:19:20;100496.22;;;24.02;58.71
50430;BME280;36359;41.556;-8.418;2022-07-06T08:21:46;100499.75;;;24.09;58.40
50430;BME280;36359;41.556;-8.418;2022-07-06T08:24:12;100500.13;;;23.83;59.33
50430;BME280;36359;41.556;-8.418;2022-07-06T08:26:38;100510.63;;;23.92;59.15
50430;BME280;36359;41.556;-8.418;2022-07-06T08:29:04;100506.78;;;23.93;59.95
50430;BME280;36359;41.556;-8.418;2022-07-06T08:31:30;100500.25;;;23.88;59.82
50430;BME280;36359;41.556;-8.418;2022-07-06T08:33:56;100496.22;;;24.02;60.28
50430;BME280;36359;41.556;-8.418;2022-07-06T08:36:22;100494.88;;;24.35;59.89
50430;BME280;36359;41.556;-8.418;2022-07-06T08:38:49;100503.41;;;24.21;59.14
50430;BME280;36359;41.556;-8.418;2022-07-06T08:41:15;100505.31;;;24.09;60.41
50430;BME280;36359;41.556;-8.418;2022-07-06T08:43:42;100499.53;;;24.22;59.78
50430;BME280;36359;41.556;-8.418;2022-07-06T08:46:08;100507.66;;;24.24;58.80
50430;BME280;36359;41.556;-8.418;2022-07-06T08:48:37;100506.03;;;24.46;58.34
50430;BME280;36359;41.556;-8.418;2022-07-06T08:51:06;100507.31;;;24.62;58.54
50430;BME280;36359;41.556;-8.418;2022-07-06T08:53:32;100509.44;;;24.48;57.75
50430;BME280;36359;41.556;-8.418;2022-07-06T08:56:00;100510.44;;;24.78;57.26
50430;BME280;36359;41.556;-8.418;2022-07-06T08:58:27;100505.03;;;24.71;57.24
50430;BME280;36359;41.556;-8.418;2022-07-06T09:00:57;100508.19;;;24.86;56.51
50430;BME280;36359;41.556;-8.418;2022-07-06T09:03:26;100505.38;;;24.75;57.12
50430;BME280;36359;41.556;-8.418;2022-07-06T09:05:57;100515.03;;;24.84;56.69
50430;BME280;36359;41.556;-8.418;2022-07-06T09:08:27;100512.16;;;24.90;56.41
50430;BME280;36359;41.556;-8.418;2022-07-06T09:10:53;100514.13;;;25.13;55.92
50430;BME280;36359;41.556;-8.418;2022-07-06T09:13:19;100518.94;;;25.06;56.81
50430;BME280;36359;41.556;-8.418;2022-07-06T09:15:45;100522.81;;;25.29;55.48
50430;BME280;36359;41.556;-8.418;2022-07-06T09:18:11;100525.34;;;25.42;55.10
50430;BME280;36359;41.556;-8.418;2022-07-06T09:20:36;100520.25;;;25.63;54.40
50430;BME280;36359;41.556;-8.418;2022-07-06T09:23:05;100519.50;;;25.55;54.84
50430;BME280;36359;41.556;-8.418;2022-07-06T09:25:32;100515.88;;;25.67;55.24
50430;BME280;36359;41.556;-8.418;2022-07-06T09:27:58;100523.91;;;26.03;54.12
50430;BME280;36359;41.556;-8.418;2022-07-06T09:30:26;100526.38;;;26.17;53.68
50430;BME280;36359;41.556;-8.418;2022-07-06T09:32:54;100527.88;;;26.08;53.58
50430;BME280;36359;41.556;-8.418;2022-07-06T09:35:25;100530.91;;;26.06;53.22
50430;BME280;36359;41.556;-8.418;2022-07-06T09:38:12;100520.03;;;26.33;52.83
50430;BME280;36359;41.556;-8.418;2022-07-06T09:40:42;100517.41;;;26.72;52.08
50430;BME280;36359;41.556;-8.418;2022-07-06T09:43:15;100521.28;;;26.71;51.69
50430;BME280;36359;41.556;-8.418;2022-07-06T09:45:44;100522.13;;;26.88;51.94
50430;BME280;36359;41.556;-8.418;2022-07-06T09:48:13;100516.97;;;26.97;52.33
50430;BME280;36359;41.556;-8.418;2022-07-06T09:50:43;100523.31;;;27.09;51.66
50430;BME280;36359;41.556;-8.418;2022-07-06T09:53:11;100522.38;;;27.21;51.23
50430;BME280;36359;41.556;-8.418;2022-07-06T09:55:37;100533.66;;;27.48;49.90
50430;BME280;36359;41.556;-8.418;2022-07-06T09:58:03;100536.59;;;27.19;50.81
50430;BME280;36359;41.556;-8.418;2022-07-06T10:00:29;100538.66;;;27.46;50.44
50430;BME280;36359;41.556;-8.418;2022-07-06T10:02:55;100538.41;;;27.69;50.36
50430;BME280;36359;41.556;-8.418;2022-07-06T10:05:21;100539.47;;;27.46;50.48
50430;BME280;36359;41.556;-8.418;2022-07-06T10:07:56;100537.88;;;27.89;50.12
50430;BME280;36359;41.556;-8.418;2022-07-06T10:10:25;100536.25;;;27.76;50.50
50430;BME280;36359;41.556;-8.418;2022-07-06T10:12:52;100538.72;;;27.90;50.15
50430;BME280;36359;41.556;-8.418;2022-07-06T10:15:22;100539.00;;;27.32;51.19
50430;BME280;36359;41.556;-8.418;2022-07-06T10:17:49;100541.00;;;27.76;50.71
50430;BME280;36359;41.556;-8.418;2022-07-06T10:20:16;100544.53;;;27.88;49.72
50430;BME280;36359;41.556;-8.418;2022-07-06T10:22:42;100538.81;;;28.00;49.15
50430;BME280;36359;41.556;-8.418;2022-07-06T10:25:08;100540.72;;;27.55;50.53
50430;BME280;36359;41.556;-8.418;2022-07-06T10:27:34;100551.22;;;28.09;49.49
50430;BME280;36359;41.556;-8.418;2022-07-06T10:30:01;100547.00;;;28.06;49.17
50430;BME280;36359;41.556;-8.418;2022-07-06T10:32:28;100546.41;;;28.81;47.75
50430;BME280;36359;41.556;-8.418;2022-07-06T10:34:54;100545.28;;;28.82;47.42
50430;BME280;36359;41.556;-8.418;2022-07-06T10:37:24;100551.88;;;28.65;47.68
50430;BME280;36359;41.556;-8.418;2022-07-06T10:39:51;100548.22;;;28.97;46.51
50430;BME280;36359;41.556;-8.418;2022-07-06T10:42:45;100547.84;;;29.15;46.46
50430;BME280;36359;41.556;-8.418;2022-07-06T10:45:13;100550.31;;;28.80;47.41
50430;BME280;36359;41.556;-8.418;2022-07-06T10:47:41;100557.31;;;28.55;47.69
50430;BME280;36359;41.556;-8.418;2022-07-06T10:50:07;100561.97;;;28.44;48.24
50430;BME280;36359;41.556;-8.418;2022-07-06T10:52:53;100559.31;;;28.33;48.44
50430;BME280;36359;41.556;-8.418;2022-07-06T10:55:43;100566.53;;;28.83;46.63
50430;BME280;36359;41.556;-8.418;2022-07-06T10:58:09;100559.19;;;29.41;45.50
50430;BME280;36359;41.556;-8.418;2022-07-06T11:00:55;100572.88;;;29.80;45.38
50430;BME280;36359;41.556;-8.418;2022-07-06T11:03:47;100566.81;;;29.51;45.21
50430;BME280;36359;41.556;-8.418;2022-07-06T11:06:14;100560.41;;;29.55;44.79
50430;BME280;36359;41.556;-8.418;2022-07-06T11:08:49;100565.44;;;29.53;44.93
50430;BME280;36359;41.556;-8.418;2022-07-06T11:11:17;100561.03;;;28.93;45.53
50430;BME280;36359;41.556;-8.418;2022-07-06T11:16:18;100564.44;;;29.70;44.12
50430;BME280;36359;41.556;-8.418;2022-07-06T11:18:49;100561.50;;;29.54;44.67
50430;BME280;36359;41.556;-8.418;2022-07-06T11:24:05;100557.25;;;29.94;43.25
50430;BME280;36359;41.556;-8.418;2022-07-06T11:26:31;100561.09;;;29.73;43.54
50430;BME280;36359;41.556;-8.418;2022-07-06T11:28:58;100563.47;;;29.54;43.36
50430;BME280;36359;41.556;-8.418;2022-07-06T11:31:26;100564.03;;;29.56;43.26
50430;BME280;36359;41.556;-8.418;2022-07-06T11:33:51;100565.06;;;29.87;44.29
50430;BME280;36359;41.556;-8.418;2022-07-06T11:36:21;100559.72;;;29.33;42.91
50430;BME280;36359;41.556;-8.418;2022-07-06T11:38:48;100565.53;;;29.69;42.36
50430;BME280;36359;41.556;-8.418;2022-07-06T11:41:16;100559.81;;;29.96;42.46
50430;BME280;36359;41.556;-8.418;2022-07-06T11:43:43;100567.00;;;30.65;40.88
50430;BME280;36359;41.556;-8.418;2022-07-06T11:46:29;100564.22;;;30.65;40.46
50430;BME280;36359;41.556;-8.418;2022-07-06T11:48:57;100567.28;;;30.53;41.86
50430;BME280;36359;41.556;-8.418;2022-07-06T11:51:26;100563.91;;;30.56;40.06
50430;BME280;36359;41.556;-8.418;2022-07-06T11:53:54;100566.47;;;30.73;41.61
50430;BME280;36359;41.556;-8.418;2022-07-06T11:56:20;100552.19;;;30.74;41.04
50430;BME280;36359;41.556;-8.418;2022-07-06T11:58:52;100546.84;;;30.47;40.88
50430;BME280;36359;41.556;-8.418;2022-07-06T12:01:19;100545.44;;;30.45;41.12
50430;BME280;36359;41.556;-8.418;2022-07-06T12:03:45;100536.22;;;30.70;40.24
50430;BME280;36359;41.556;-8.418;2022-07-06T12:06:22;100534.59;;;30.89;40.91
50430;BME280;36359;41.556;-8.418;2022-07-06T12:08:51;100543.53;;;31.27;38.54
50430;BME280;36359;41.556;-8.418;2022-07-06T12:13:51;100540.38;;;30.37;40.61
50430;BME280;36359;41.556;-8.418;2022-07-06T12:16:17;100538.78;;;31.02;40.85
50430;BME280;36359;41.556;-8.418;2022-07-06T12:18:45;100536.22;;;30.65;41.35
50430;BME280;36359;41.556;-8.418;2022-07-06T12:21:14;100530.66;;;30.95;42.13
50430;BME280;36359;41.556;-8.418;2022-07-06T12:23:46;100534.00;;;30.82;41.28
50430;BME280;36359;41.556;-8.418;2022-07-06T12:26:14;100529.81;;;30.85;41.06
50430;BME280;36359;41.556;-8.418;2022-07-06T12:28:40;100534.59;;;30.94;40.81
50430;BME280;36359;41.556;-8.418;2022-07-06T12:31:07;100524.47;;;30.63;41.22
50430;BME280;36359;41.556;-8.418;2022-07-06T12:33:33;100525.06;;;30.90;40.14
50430;BME280;36359;41.556;-8.418;2022-07-06T12:36:10;100523.09;;;31.01;40.38
50430;BME280;36359;41.556;-8.418;2022-07-06T12:41:08;100533.09;;;31.68;39.25
50430;BME280;36359;41.556;-8.418;2022-07-06T12:43:41;100528.38;;;31.54;38.91
50430;BME280;36359;41.556;-8.418;2022-07-06T12:48:58;100524.94;;;31.72;39.11
50430;BME280;36359;41.556;-8.418;2022-07-06T12:51:25;100528.91;;;31.61;39.39
50430;BME280;36359;41.556;-8.418;2022-07-06T12:53:51;100524.88;;;31.87;39.00
50430;BME280;36359;41.556;-8.418;2022-07-06T12:56:17;100521.94;;;31.48;37.81
50430;BME280;36359;41.556;-8.418;2022-07-06T12:58:59;100521.25;;;31.77;36.39
50430;BME280;36359;41.556;-8.418;2022-07-06T13:01:25;100519.09;;;31.58;38.11
50430;BME280;36359;41.556;-8.418;2022-07-06T13:03:57;100519.16;;;32.13;36.25
50430;BME280;36359;41.556;-8.418;2022-07-06T13:06:30;100514.28;;;31.69;36.47
50430;BME280;36359;41.556;-8.418;2022-07-06T13:08:56;100513.22;;;31.55;37.00
50430;BME280;36359;41.556;-8.418;2022-07-06T13:11:22;100512.97;;;31.41;38.83
50430;BME280;36359;41.556;-8.418;2022-07-06T13:13:48;100510.72;;;31.43;38.07